sensor_id;sensor_type;location;lat;lon;timestamp;P1;durP1;ratioP1;P2;durP2;ratioP2
26271;SDS011;13997;48.902;12.472;2023-10-13T00:02:07;19.35;;;7.93;;
26271;SDS011;13997;48.902;12.472;2023-10-13T00:04:33;18.65;;;7.50;;
26271;SDS011;13997;48.902;12.472;2023-10-13T00:07:01;20.98;;;7.88;;
26271;SDS011;13997;48.902;12.472;2023-10-13T00:09:28;15.18;;;6.82;;
26271;SDS011;13997;48.902;12.472;2023-10-13T00:12:00;19.30;;;7.53;;
26271;SDS011;13997;48.902;12.472;2023-10-13T00:14:26;15.27;;;7.45;;
26271;SDS011;13997;48.902;12.472;2023-10-13T00:17:02;15.95;;;6.97;;
26271;SDS011;13997;48.902;12.472;2023-10-13T00:19:29;14.83;;;7.03;;
26271;SDS011;13997;48.902;12.472;2023-10-13T00:22:11;14.05;;;6.72;;
26271;SDS011;13997;48.902;12.472;2023-10-13T00:24:37;13.27;;;7.00;;
26271;SDS011;13997;48.902;12.472;2023-10-13T00:27:16;19.48;;;7.75;;
26271;SDS011;13997;48.902;12.472;2023-10-13T00:30:01;11.43;;;6.70;;
26271;SDS011;13997;48.902;12.472;2023-10-13T00:32:40;17.77;;;6.65;;
26271;SDS011;13997;48.902;12.472;2023-10-13T00:35:09;12.20;;;6.13;;
26271;SDS011;13997;48.902;12.472;2023-10-13T00:37:37;17.02;;;6.60;;
26271;SDS011;13997;48.902;12.472;2023-10-13T00:40:10;16.85;;;7.68;;
26271;SDS011;13997;48.902;12.472;2023-10-13T00:42:57;12.23;;;6.10;;
26271;SDS011;13997;48.902;12.472;2023-10-13T00:45:42;14.38;;;6.80;;
26271;SDS011;13997;48.902;12.472;2023-10-13T00:48:25;18.27;;;7.03;;
26271;SDS011;13997;48.902;12.472;2023-10-13T00:51:00;11.75;;;6.32;;
26271;SDS011;13997;48.902;12.472;2023-10-13T00:53:36;13.20;;;6.82;;
26271;SDS011;13997;48.902;12.472;2023-10-13T00:56:05;12.57;;;6.75;;
26271;SDS011;13997;48.902;12.472;2023-10-13T00:58:44;12.35;;;6.75;;
26271;SDS011;13997;48.902;12.472;2023-10-13T01:01:15;20.52;;;7.03;;
26271;SDS011;13997;48.902;12.472;2023-10-13T01:03:49;14.95;;;6.65;;
26271;SDS011;13997;48.902;12.472;2023-10-13T01:06:20;12.63;;;6.63;;
26271;SDS011;13997;48.902;12.472;2023-10-13T01:08:56;17.27;;;7.18;;
26271;SDS011;13997;48.902;12.472;2023-10-13T01:11:39;14.23;;;6.75;;
26271;SDS011;13997;48.902;12.472;2023-10-13T01:14:07;13.35;;;6.70;;
26271;SDS011;13997;48.902;12.472;2023-10-13T01:16:36;14.30;;;6.68;;
26271;SDS011;13997;48.902;12.472;2023-10-13T01:19:08;12.50;;;6.68;;
26271;SDS011;13997;48.902;12.472;2023-10-13T01:21:37;18.42;;;7.38;;
26271;SDS011;13997;48.902;12.472;2023-10-13T01:24:05;16.63;;;6.43;;
26271;SDS011;13997;48.902;12.472;2023-10-13T01:26:33;14.57;;;7.05;;
26271;SDS011;13997;48.902;12.472;2023-10-13T01:29:03;16.60;;;8.10;;
26271;SDS011;13997;48.902;12.472;2023-10-13T01:31:50;14.65;;;6.78;;
26271;SDS011;13997;48.902;12.472;2023-10-13T01:34:18;11.93;;;6.63;;
26271;SDS011;13997;48.902;12.472;2023-10-13T01:36:54;13.48;;;6.75;;
26271;SDS011;13997;48.902;12.472;2023-10-13T01:39:21;10.88;;;6.70;;
26271;SDS011;13997;48.902;12.472;2023-10-13T01:41:53;12.88;;;6.20;;
26271;SDS011;13997;48.902;12.472;2023-10-13T01:44:25;11.80;;;6.88;;
26271;SDS011;13997;48.902;12.472;2023-10-13T01:46:59;13.75;;;6.65;;
26271;SDS011;13997;48.902;12.472;2023-10-13T01:49:31;14.60;;;6.30;;
26271;SDS011;13997;48.902;12.472;2023-10-13T01:52:12;11.85;;;6.63;;
26271;SDS011;13997;48.902;12.472;2023-10-13T01:54:49;13.65;;;6.50;;
26271;SDS011;13997;48.902;12.472;2023-10-13T01:57:16;14.20;;;6.80;;
26271;SDS011;13997;48.902;12.472;2023-10-13T01:59:49;14.10;;;6.18;;
26271;SDS011;13997;48.902;12.472;2023-10-13T02:02:15;14.15;;;6.63;;
26271;SDS011;13997;48.902;12.472;2023-10-13T02:04:53;13.45;;;7.05;;
26271;SDS011;13997;48.902;12.472;2023-10-13T02:07:25;18.10;;;7.10;;
26271;SDS011;13997;48.902;12.472;2023-10-13T02:09:59;13.30;;;7.15;;
26271;SDS011;13997;48.902;12.472;2023-10-13T02:12:29;14.35;;;6.82;;
26271;SDS011;13997;48.902;12.472;2023-10-13T02:15:15;13.98;;;6.95;;
26271;SDS011;13997;48.902;12.472;2023-10-13T02:17:50;15.80;;;6.35;;
26271;SDS011;13997;48.902;12.472;2023-10-13T02:20:19;16.02;;;7.47;;
26271;SDS011;13997;48.902;12.472;2023-10-13T02:22:48;20.75;;;6.63;;
26271;SDS011;13997;48.902;12.472;2023-10-13T02:25:17;14.25;;;6.60;;
26271;SDS011;13997;48.902;12.472;2023-10-13T02:28:00;12.45;;;6.63;;
26271;SDS011;13997;48.902;12.472;2023-10-13T02:30:26;13.05;;;7.38;;
26271;SDS011;13997;48.902;12.472;2023-10-13T02:32:52;16.42;;;7.32;;
26271;SDS011;13997;48.902;12.472;2023-10-13T02:35:18;18.58;;;7.55;;
26271;SDS011;13997;48.902;12.472;2023-10-13T02:37:54;17.45;;;7.85;;
26271;SDS011;13997;48.902;12.472;2023-10-13T02:40:22;17.52;;;7.65;;
26271;SDS011;13997;48.902;12.472;2023-10-13T02:42:48;13.40;;;6.90;;
26271;SDS011;13997;48.902;12.472;2023-10-13T02:45:14;12.38;;;7.07;;
26271;SDS011;13997;48.902;12.472;2023-10-13T02:47:40;14.02;;;6.88;;
26271;SDS011;13997;48.902;12.472;2023-10-13T02:50:09;14.88;;;7.28;;
26271;SDS011;13997;48.902;12.472;2023-10-13T02:52:37;14.90;;;7.57;;
26271;SDS011;13997;48.902;12.472;2023-10-13T02:55:06;16.05;;;7.22;;
26271;SDS011;13997;48.902;12.472;2023-10-13T02:57:35;16.30;;;7.32;;
26271;SDS011;13997;48.902;12.472;2023-10-13T03:00:01;14.15;;;7.30;;
26271;SDS011;13997;48.902;12.472;2023-10-13T03:02:40;14.23;;;7.07;;
26271;SDS011;13997;48.902;12.472;2023-10-13T03:05:11;14.15;;;6.05;;
26271;SDS011;13997;48.902;12.472;2023-10-13T03:07:39;18.88;;;7.53;;
26271;SDS011;13997;48.902;12.472;2023-10-13T03:10:08;14.95;;;7.82;;
26271;SDS011;13997;48.902;12.472;2023-10-13T03:12:37;16.77;;;6.93;;
26271;SDS011;13997;48.902;12.472;2023-10-13T03:15:04;17.83;;;7.82;;
26271;SDS011;13997;48.902;12.472;2023-10-13T03:17:39;14.40;;;7.50;;
26271;SDS011;13997;48.902;12.472;2023-10-13T03:20:15;14.43;;;7.10;;
26271;SDS011;13997;48.902;12.472;2023-10-13T03:22:47;21.50;;;8.35;;
26271;SDS011;13997;48.902;12.472;2023-10-13T03:25:17;20.13;;;7.65;;
26271;SDS011;13997;48.902;12.472;2023-10-13T03:27:49;19.30;;;7.65;;
26271;SDS011;13997;48.902;12.472;2023-10-13T03:30:18;13.43;;;7.82;;
26271;SDS011;13997;48.902;12.472;2023-10-13T03:32:45;15.95;;;8.52;;
26271;SDS011;13997;48.902;12.472;2023-10-13T03:35:14;16.92;;;8.75;;
26271;SDS011;13997;48.902;12.472;2023-10-13T03:37:52;17.05;;;8.50;;
26271;SDS011;13997;48.902;12.472;2023-10-13T03:40:19;17.42;;;8.35;;
26271;SDS011;13997;48.902;12.472;2023-10-13T03:42:46;18.90;;;8.85;;
26271;SDS011;13997;48.902;12.472;2023-10-13T03:48:03;18.20;;;8.32;;
26271;SDS011;13997;48.902;12.472;2023-10-13T03:50:34;15.05;;;8.27;;
26271;SDS011;13997;48.902;12.472;2023-10-13T03:53:01;14.00;;;7.85;;
26271;SDS011;13997;48.902;12.472;2023-10-13T03:55:27;13.48;;;7.75;;
26271;SDS011;13997;48.902;12.472;2023-10-13T03:57:54;18.80;;;8.27;;
26271;SDS011;13997;48.902;12.472;2023-10-13T04:00:23;16.95;;;9.90;;
26271;SDS011;13997;48.902;12.472;2023-10-13T04:02:50;16.98;;;7.50;;
26271;SDS011;13997;48.902;12.472;2023-10-13T04:05:28;16.73;;;8.63;;
26271;SDS011;13997;48.902;12.472;2023-10-13T04:08:07;32.92;;;16.95;;
26271;SDS011;13997;48.902;12.472;2023-10-13T04:10:52;28.00;;;12.32;;
26271;SDS011;13997;48.902;12.472;2023-10-13T04:13:19;19.52;;;9.77;;
26271;SDS011;13997;48.902;12.472;2023-10-13T04:15:45;19.08;;;8.27;;
26271;SDS011;13997;48.902;12.472;2023-10-13T04:18:29;16.65;;;9.00;;
26271;SDS011;13997;48.902;12.472;2023-10-13T04:20:59;21.02;;;9.95;;
26271;SDS011;13997;48.902;12.472;2023-10-13T04:23:33;18.65;;;9.77;;
26271;SDS011;13997;48.902;12.472;2023-10-13T04:26:18;15.90;;;8.68;;
26271;SDS011;13997;48.902;12.472;2023-10-13T04:28:46;17.77;;;9.25;;
26271;SDS011;13997;48.902;12.472;2023-10-13T04:31:18;17.13;;;8.05;;
26271;SDS011;13997;48.902;12.472;2023-10-13T04:34:09;23.63;;;10.30;;
26271;SDS011;13997;48.902;12.472;2023-10-13T04:36:44;16.65;;;9.55;;
26271;SDS011;13997;48.902;12.472;2023-10-13T04:39:20;14.32;;;8.30;;
26271;SDS011;13997;48.902;12.472;2023-10-13T04:42:00;16.92;;;8.60;;
26271;SDS011;13997;48.902;12.472;2023-10-13T04:44:38;14.85;;;8.30;;
26271;SDS011;13997;48.902;12.472;2023-10-13T04:47:07;13.65;;;8.32;;
26271;SDS011;13997;48.902;12.472;2023-10-13T04:49:34;18.08;;;8.55;;
26271;SDS011;13997;48.902;12.472;2023-10-13T04:52:10;14.63;;;7.45;;
26271;SDS011;13997;48.902;12.472;2023-10-13T04:54:41;15.20;;;8.80;;
26271;SDS011;13997;48.902;12.472;2023-10-13T04:57:15;18.85;;;8.65;;
26271;SDS011;13997;48.902;12.472;2023-10-13T04:59:50;15.60;;;8.55;;
26271;SDS011;13997;48.902;12.472;2023-10-13T05:02:32;39.22;;;20.40;;
26271;SDS011;13997;48.902;12.472;2023-10-13T05:05:05;17.20;;;9.85;;
26271;SDS011;13997;48.902;12.472;2023-10-13T05:07:36;23.52;;;13.73;;
26271;SDS011;13997;48.902;12.472;2023-10-13T05:10:21;18.08;;;9.65;;
26271;SDS011;13997;48.902;12.472;2023-10-13T05:13:06;16.60;;;9.25;;
26271;SDS011;13997;48.902;12.472;2023-10-13T05:15:50;18.45;;;9.38;;
26271;SDS011;13997;48.902;12.472;2023-10-13T05:18:35;17.25;;;9.90;;
26271;SDS011;13997;48.902;12.472;2023-10-13T05:21:19;16.35;;;8.73;;
26271;SDS011;13997;48.902;12.472;2023-10-13T05:24:04;16.55;;;9.30;;
26271;SDS011;13997;48.902;12.472;2023-10-13T05:26:48;19.48;;;8.95;;
26271;SDS011;13997;48.902;12.472;2023-10-13T05:29:33;17.88;;;8.90;;
26271;SDS011;13997;48.902;12.472;2023-10-13T05:32:17;20.00;;;9.60;;
26271;SDS011;13997;48.902;12.472;2023-10-13T05:35:01;17.33;;;9.85;;
26271;SDS011;13997;48.902;12.472;2023-10-13T05:37:45;18.38;;;8.73;;
26271;SDS011;13997;48.902;12.472;2023-10-13T05:40:29;16.17;;;9.73;;
26271;SDS011;13997;48.902;12.472;2023-10-13T05:43:14;17.60;;;9.35;;
26271;SDS011;13997;48.902;12.472;2023-10-13T05:46:01;15.27;;;8.60;;
26271;SDS011;13997;48.902;12.472;2023-10-13T05:48:56;18.83;;;8.70;;
26271;SDS011;13997;48.902;12.472;2023-10-13T05:53:57;14.13;;;8.25;;
26271;SDS011;13997;48.902;12.472;2023-10-13T05:56:41;19.75;;;9.05;;
26271;SDS011;13997;48.902;12.472;2023-10-13T05:59:26;18.60;;;8.38;;
26271;SDS011;13997;48.902;12.472;2023-10-13T06:02:10;19.80;;;8.55;;
26271;SDS011;13997;48.902;12.472;2023-10-13T06:04:55;18.95;;;9.10;;
26271;SDS011;13997;48.902;12.472;2023-10-13T06:07:40;16.45;;;9.05;;
26271;SDS011;13997;48.902;12.472;2023-10-13T06:10:24;20.50;;;9.50;;
26271;SDS011;13997;48.902;12.472;2023-10-13T06:13:09;18.63;;;10.20;;
26271;SDS011;13997;48.902;12.472;2023-10-13T06:15:53;22.58;;;10.35;;
26271;SDS011;13997;48.902;12.472;2023-10-13T06:18:37;15.93;;;9.70;;
26271;SDS011;13997;48.902;12.472;2023-10-13T06:21:21;23.48;;;9.82;;
26271;SDS011;13997;48.902;12.472;2023-10-13T06:24:07;21.33;;;10.48;;
26271;SDS011;13997;48.902;12.472;2023-10-13T06:26:51;17.40;;;10.18;;
26271;SDS011;13997;48.902;12.472;2023-10-13T06:29:35;23.35;;;10.52;;
26271;SDS011;13997;48.902;12.472;2023-10-13T06:32:01;17.85;;;8.90;;
26271;SDS011;13997;48.902;12.472;2023-10-13T06:34:35;17.77;;;9.40;;
26271;SDS011;13997;48.902;12.472;2023-10-13T06:37:16;23.63;;;10.13;;
26271;SDS011;13997;48.902;12.472;2023-10-13T06:39:49;22.00;;;10.57;;
26271;SDS011;13997;48.902;12.472;2023-10-13T06:42:15;16.73;;;10.13;;
26271;SDS011;13997;48.902;12.472;2023-10-13T06:44:42;23.20;;;11.75;;
26271;SDS011;13997;48.902;12.472;2023-10-13T06:47:11;24.52;;;11.13;;
26271;SDS011;13997;48.902;12.472;2023-10-13T06:49:37;19.02;;;10.82;;
26271;SDS011;13997;48.902;12.472;2023-10-13T06:52:05;18.95;;;10.38;;
26271;SDS011;13997;48.902;12.472;2023-10-13T06:54:32;18.40;;;10.60;;
26271;SDS011;13997;48.902;12.472;2023-10-13T06:57:02;21.73;;;10.40;;
26271;SDS011;13997;48.902;12.472;2023-10-13T06:59:31;19.25;;;10.55;;
26271;SDS011;13997;48.902;12.472;2023-10-13T07:02:00;18.23;;;10.50;;
26271;SDS011;13997;48.902;12.472;2023-10-13T07:04:31;18.50;;;10.07;;
26271;SDS011;13997;48.902;12.472;2023-10-13T07:06:57;21.70;;;9.82;;
26271;SDS011;13997;48.902;12.472;2023-10-13T07:09:25;18.95;;;10.52;;
26271;SDS011;13997;48.902;12.472;2023-10-13T07:12:01;19.52;;;11.43;;
26271;SDS011;13997;48.902;12.472;2023-10-13T07:14:50;22.35;;;11.13;;
26271;SDS011;13997;48.902;12.472;2023-10-13T07:20:40;20.52;;;11.15;;
26271;SDS011;13997;48.902;12.472;2023-10-13T07:23:10;23.98;;;10.55;;
26271;SDS011;13997;48.902;12.472;2023-10-13T07:25:54;20.92;;;11.10;;
26271;SDS011;13997;48.902;12.472;2023-10-13T07:28:27;19.77;;;10.32;;
26271;SDS011;13997;48.902;12.472;2023-10-13T07:30:55;28.63;;;11.18;;
26271;SDS011;13997;48.902;12.472;2023-10-13T07:33:25;22.08;;;10.63;;
26271;SDS011;13997;48.902;12.472;2023-10-13T07:36:06;21.75;;;11.27;;
26271;SDS011;13997;48.902;12.472;2023-10-13T07:38:45;19.30;;;10.32;;
26271;SDS011;13997;48.902;12.472;2023-10-13T07:41:13;23.48;;;11.15;;
26271;SDS011;13997;48.902;12.472;2023-10-13T07:43:41;19.33;;;10.45;;
26271;SDS011;13997;48.902;12.472;2023-10-13T07:46:08;23.25;;;11.52;;
26271;SDS011;13997;48.902;12.472;2023-10-13T07:48:38;20.65;;;10.30;;
26271;SDS011;13997;48.902;12.472;2023-10-13T07:51:05;20.30;;;10.23;;
26271;SDS011;13997;48.902;12.472;2023-10-13T07:53:47;24.35;;;10.07;;
26271;SDS011;13997;48.902;12.472;2023-10-13T07:56:18;19.13;;;9.25;;
26271;SDS011;13997;48.902;12.472;2023-10-13T07:58:44;16.55;;;9.43;;
26271;SDS011;13997;48.902;12.472;2023-10-13T08:01:25;18.05;;;9.05;;
26271;SDS011;13997;48.902;12.472;2023-10-13T08:03:51;19.75;;;8.82;;
26271;SDS011;13997;48.902;12.472;2023-10-13T08:06:36;19.52;;;9.55;;
26271;SDS011;13997;48.902;12.472;2023-10-13T08:09:02;18.35;;;8.48;;
26271;SDS011;13997;48.902;12.472;2023-10-13T08:11:35;18.15;;;8.20;;
26271;SDS011;13997;48.902;12.472;2023-10-13T08:14:02;16.80;;;8.00;;
26271;SDS011;13997;48.902;12.472;2023-10-13T08:16:41;14.60;;;6.00;;
26271;SDS011;13997;48.902;12.472;2023-10-13T08:19:13;14.75;;;6.55;;
26271;SDS011;13997;48.902;12.472;2023-10-13T08:21:44;13.95;;;7.10;;
26271;SDS011;13997;48.902;12.472;2023-10-13T08:24:41;15.15;;;6.40;;
26271;SDS011;13997;48.902;12.472;2023-10-13T08:27:07;11.30;;;6.07;;
26271;SDS011;13997;48.902;12.472;2023-10-13T08:29:51;12.07;;;6.55;;
26271;SDS011;13997;48.902;12.472;2023-10-13T08:32:23;17.35;;;6.57;;
26271;SDS011;13997;48.902;12.472;2023-10-13T08:34:53;11.95;;;6.07;;
26271;SDS011;13997;48.902;12.472;2023-10-13T08:37:19;13.35;;;5.20;;
26271;SDS011;13997;48.902;12.472;2023-10-13T08:39:49;13.85;;;6.28;;
26271;SDS011;13997;48.902;12.472;2023-10-13T08:42:32;10.93;;;5.00;;
26271;SDS011;13997;48.902;12.472;2023-10-13T08:45:18;11.65;;;4.88;;
26271;SDS011;13997;48.902;12.472;2023-10-13T08:47:59;11.05;;;5.20;;
26271;SDS011;13997;48.902;12.472;2023-10-13T08:50:38;11.75;;;4.68;;
26271;SDS011;13997;48.902;12.472;2023-10-13T08:56:11;14.95;;;5.05;;
26271;SDS011;13997;48.902;12.472;2023-10-13T08:58:41;15.40;;;4.70;;
26271;SDS011;13997;48.902;12.472;2023-10-13T09:01:20;10.15;;;4.95;;
26271;SDS011;13997;48.902;12.472;2023-10-13T09:04:02;11.73;;;4.38;;
26271;SDS011;13997;48.902;12.472;2023-10-13T09:07:07;9.05;;;3.60;;
26271;SDS011;13997;48.902;12.472;2023-10-13T09:09:47;10.65;;;4.35;;
26271;SDS011;13997;48.902;12.472;2023-10-13T09:12:16;9.20;;;4.10;;
26271;SDS011;13997;48.902;12.472;2023-10-13T09:14:54;9.60;;;4.35;;
26271;SDS011;13997;48.902;12.472;2023-10-13T09:17:26;10.48;;;4.07;;
26271;SDS011;13997;48.902;12.472;2023-10-13T09:20:01;11.48;;;4.72;;
26271;SDS011;13997;48.902;12.472;2023-10-13T09:22:47;10.20;;;4.25;;
26271;SDS011;13997;48.902;12.472;2023-10-13T09:28:03;9.63;;;4.30;;
26271;SDS011;13997;48.902;12.472;2023-10-13T09:30:46;12.00;;;5.20;;
26271;SDS011;13997;48.902;12.472;2023-10-13T09:33:12;10.63;;;4.18;;
26271;SDS011;13997;48.902;12.472;2023-10-13T09:35:44;9.70;;;4.38;;
26271;SDS011;13997;48.902;12.472;2023-10-13T09:38:19;10.95;;;4.00;;
26271;SDS011;13997;48.902;12.472;2023-10-13T09:40:45;15.40;;;4.00;;
26271;SDS011;13997;48.902;12.472;2023-10-13T09:43:18;9.20;;;4.13;;
26271;SDS011;13997;48.902;12.472;2023-10-13T09:45:46;8.48;;;3.70;;
26271;SDS011;13997;48.902;12.472;2023-10-13T09:48:33;11.95;;;3.72;;
26271;SDS011;13997;48.902;12.472;2023-10-13T09:51:01;9.48;;;4.15;;
26271;SDS011;13997;48.902;12.472;2023-10-13T09:53:31;9.82;;;3.90;;
26271;SDS011;13997;48.902;12.472;2023-10-13T09:56:03;7.90;;;3.67;;
26271;SDS011;13997;48.902;12.472;2023-10-13T09:58:58;9.90;;;3.88;;
26271;SDS011;13997;48.902;12.472;2023-10-13T10:01:34;7.80;;;3.57;;
26271;SDS011;13997;48.902;12.472;2023-10-13T10:04:09;9.70;;;3.80;;
26271;SDS011;13997;48.902;12.472;2023-10-13T10:06:51;8.30;;;3.25;;
26271;SDS011;13997;48.902;12.472;2023-10-13T10:09:31;7.70;;;3.05;;
26271;SDS011;13997;48.902;12.472;2023-10-13T10:17:49;6.90;;;3.58;;
26271;SDS011;13997;48.902;12.472;2023-10-13T10:20:17;9.45;;;3.08;;
26271;SDS011;13997;48.902;12.472;2023-10-13T10:23:06;7.63;;;3.38;;
26271;SDS011;13997;48.902;12.472;2023-10-13T10:28:07;10.20;;;3.25;;
26271;SDS011;13997;48.902;12.472;2023-10-13T10:30:33;7.30;;;2.97;;
26271;SDS011;13997;48.902;12.472;2023-10-13T10:33:03;8.68;;;2.78;;
26271;SDS011;13997;48.902;12.472;2023-10-13T10:35:37;12.73;;;3.00;;
26271;SDS011;13997;48.902;12.472;2023-10-13T10:38:10;11.57;;;2.45;;
26271;SDS011;13997;48.902;12.472;2023-10-13T10:46:17;12.57;;;3.13;;
26271;SDS011;13997;48.902;12.472;2023-10-13T10:48:50;5.53;;;2.47;;
26271;SDS011;13997;48.902;12.472;2023-10-13T10:51:21;4.22;;;2.22;;
26271;SDS011;13997;48.902;12.472;2023-10-13T10:53:48;9.80;;;2.25;;
26271;SDS011;13997;48.902;12.472;2023-10-13T10:56:16;6.75;;;2.13;;
26271;SDS011;13997;48.902;12.472;2023-10-13T10:58:46;8.45;;;2.30;;
26271;SDS011;13997;48.902;12.472;2023-10-13T11:01:12;6.32;;;2.30;;
26271;SDS011;13997;48.902;12.472;2023-10-13T11:03:55;10.38;;;2.70;;
26271;SDS011;13997;48.902;12.472;2023-10-13T11:06:28;6.75;;;2.60;;
26271;SDS011;13997;48.902;12.472;2023-10-13T11:09:03;6.43;;;2.58;;
26271;SDS011;13997;48.902;12.472;2023-10-13T11:11:55;9.75;;;2.70;;
26271;SDS011;13997;48.902;12.472;2023-10-13T11:14:29;7.80;;;2.58;;
26271;SDS011;13997;48.902;12.472;2023-10-13T11:16:55;11.02;;;3.67;;
26271;SDS011;13997;48.902;12.472;2023-10-13T11:19:42;4.60;;;2.65;;
26271;SDS011;13997;48.902;12.472;2023-10-13T11:22:11;11.63;;;2.63;;
26271;SDS011;13997;48.902;12.472;2023-10-13T11:24:57;7.90;;;2.72;;
26271;SDS011;13997;48.902;12.472;2023-10-13T11:27:40;9.75;;;3.00;;
26271;SDS011;13997;48.902;12.472;2023-10-13T11:30:15;7.13;;;2.72;;
26271;SDS011;13997;48.902;12.472;2023-10-13T11:33:30;7.38;;;2.65;;
26271;SDS011;13997;48.902;12.472;2023-10-13T11:35:31;9.38;;;2.50;;
26271;SDS011;13997;48.902;12.472;2023-10-13T11:38:16;8.25;;;2.40;;
26271;SDS011;13997;48.902;12.472;2023-10-13T11:40:51;10.38;;;2.70;;
26271;SDS011;13997;48.902;12.472;2023-10-13T11:43:36;6.57;;;2.33;;
26271;SDS011;13997;48.902;12.472;2023-10-13T11:46:15;6.47;;;2.55;;
26271;SDS011;13997;48.902;12.472;2023-10-13T11:48:44;6.40;;;2.50;;
26271;SDS011;13997;48.902;12.472;2023-10-13T11:51:12;7.60;;;2.42;;
26271;SDS011;13997;48.902;12.472;2023-10-13T11:53:57;9.25;;;2.40;;
26271;SDS011;13997;48.902;12.472;2023-10-13T11:56:24;6.35;;;2.45;;
26271;SDS011;13997;48.902;12.472;2023-10-13T11:58:50;6.75;;;2.70;;
26271;SDS011;13997;48.902;12.472;2023-10-13T12:01:16;9.95;;;2.58;;
26271;SDS011;13997;48.902;12.472;2023-10-13T12:03:46;11.00;;;3.00;;
26271;SDS011;13997;48.902;12.472;2023-10-13T12:06:32;7.38;;;3.00;;
26271;SDS011;13997;48.902;12.472;2023-10-13T12:09:02;7.93;;;3.30;;
26271;SDS011;13997;48.902;12.472;2023-10-13T12:14:13;12.68;;;3.05;;
26271;SDS011;13997;48.902;12.472;2023-10-13T12:16:45;5.10;;;2.30;;
26271;SDS011;13997;48.902;12.472;2023-10-13T12:21:55;6.78;;;2.60;;
26271;SDS011;13997;48.902;12.472;2023-10-13T12:24:24;6.18;;;2.20;;
26271;SDS011;13997;48.902;12.472;2023-10-13T12:26:58;9.30;;;2.85;;
26271;SDS011;13997;48.902;12.472;2023-10-13T12:29:23;11.77;;;2.67;;
26271;SDS011;13997;48.902;12.472;2023-10-13T12:31:54;5.80;;;2.47;;
26271;SDS011;13997;48.902;12.472;2023-10-13T12:34:37;7.90;;;2.55;;
26271;SDS011;13997;48.902;12.472;2023-10-13T12:37:22;6.32;;;2.60;;
26271;SDS011;13997;48.902;12.472;2023-10-13T12:40:06;5.82;;;2.83;;
26271;SDS011;13997;48.902;12.472;2023-10-13T12:42:51;4.68;;;2.15;;
26271;SDS011;13997;48.902;12.472;2023-10-13T12:45:38;16.63;;;2.70;;
26271;SDS011;13997;48.902;12.472;2023-10-13T12:48:24;5.35;;;1.90;;
26271;SDS011;13997;48.902;12.472;2023-10-13T12:51:08;12.40;;;3.00;;
26271;SDS011;13997;48.902;12.472;2023-10-13T12:54:06;7.47;;;2.80;;
26271;SDS011;13997;48.902;12.472;2023-10-13T12:57:00;7.72;;;2.55;;
26271;SDS011;13997;48.902;12.472;2023-10-13T12:59:26;3.97;;;2.13;;
26271;SDS011;13997;48.902;12.472;2023-10-13T13:01:52;7.15;;;2.70;;
26271;SDS011;13997;48.902;12.472;2023-10-13T13:04:18;10.70;;;2.95;;
26271;SDS011;13997;48.902;12.472;2023-10-13T13:06:47;9.00;;;2.55;;
26271;SDS011;13997;48.902;12.472;2023-10-13T13:09:13;6.72;;;2.42;;
26271;SDS011;13997;48.902;12.472;2023-10-13T13:11:38;10.75;;;3.00;;
26271;SDS011;13997;48.902;12.472;2023-10-13T13:14:07;7.03;;;2.40;;
26271;SDS011;13997;48.902;12.472;2023-10-13T13:16:33;10.65;;;2.95;;
26271;SDS011;13997;48.902;12.472;2023-10-13T13:19:00;10.07;;;2.10;;
26271;SDS011;13997;48.902;12.472;2023-10-13T13:21:35;9.50;;;3.08;;
26271;SDS011;13997;48.902;12.472;2023-10-13T13:24:03;9.95;;;2.78;;
26271;SDS011;13997;48.902;12.472;2023-10-13T13:26:36;6.75;;;2.30;;
26271;SDS011;13997;48.902;12.472;2023-10-13T13:29:05;5.78;;;2.00;;
26271;SDS011;13997;48.902;12.472;2023-10-13T13:31:34;6.22;;;2.72;;
26271;SDS011;13997;48.902;12.472;2023-10-13T13:34:06;7.30;;;2.40;;
26271;SDS011;13997;48.902;12.472;2023-10-13T13:36:34;5.88;;;2.22;;
26271;SDS011;13997;48.902;12.472;2023-10-13T13:39:00;7.88;;;2.75;;
26271;SDS011;13997;48.902;12.472;2023-10-13T13:41:26;5.97;;;2.72;;
26271;SDS011;13997;48.902;12.472;2023-10-13T13:43:52;11.05;;;2.92;;
26271;SDS011;13997;48.902;12.472;2023-10-13T13:46:22;6.57;;;2.35;;
26271;SDS011;13997;48.902;12.472;2023-10-13T13:48:54;4.82;;;2.30;;
26271;SDS011;13997;48.902;12.472;2023-10-13T13:51:24;9.88;;;2.40;;
26271;SDS011;13997;48.902;12.472;2023-10-13T13:53:57;8.45;;;2.50;;
26271;SDS011;13997;48.902;12.472;2023-10-13T13:56:23;8.52;;;2.25;;
26271;SDS011;13997;48.902;12.472;2023-10-13T13:58:53;9.82;;;2.38;;
26271;SDS011;13997;48.902;12.472;2023-10-13T14:01:20;9.05;;;2.38;;
26271;SDS011;13997;48.902;12.472;2023-10-13T14:03:48;4.57;;;2.03;;
26271;SDS011;13997;48.902;12.472;2023-10-13T14:06:18;6.75;;;2.15;;
26271;SDS011;13997;48.902;12.472;2023-10-13T14:08:56;8.82;;;2.30;;
26271;SDS011;13997;48.902;12.472;2023-10-13T14:11:25;5.93;;;2.35;;
26271;SDS011;13997;48.902;12.472;2023-10-13T14:14:11;12.45;;;2.33;;
26271;SDS011;13997;48.902;12.472;2023-10-13T14:16:39;7.25;;;2.38;;
26271;SDS011;13997;48.902;12.472;2023-10-13T14:19:13;6.10;;;2.08;;
26271;SDS011;13997;48.902;12.472;2023-10-13T14:21:52;11.23;;;2.42;;
26271;SDS011;13997;48.902;12.472;2023-10-13T14:24:20;13.02;;;2.97;;
26271;SDS011;13997;48.902;12.472;2023-10-13T14:27:02;8.23;;;2.38;;
26271;SDS011;13997;48.902;12.472;2023-10-13T14:29:40;5.88;;;2.35;;
26271;SDS011;13997;48.902;12.472;2023-10-13T14:32:07;8.80;;;2.33;;
26271;SDS011;13997;48.902;12.472;2023-10-13T14:34:44;10.00;;;2.55;;
26271;SDS011;13997;48.902;12.472;2023-10-13T14:37:12;6.22;;;2.60;;
26271;SDS011;13997;48.902;12.472;2023-10-13T14:39:38;7.38;;;2.10;;
26271;SDS011;13997;48.902;12.472;2023-10-13T14:42:04;10.82;;;2.60;;
26271;SDS011;13997;48.902;12.472;2023-10-13T14:44:31;5.80;;;2.30;;
26271;SDS011;13997;48.902;12.472;2023-10-13T14:46:57;5.25;;;2.10;;
26271;SDS011;13997;48.902;12.472;2023-10-13T14:49:23;4.38;;;1.98;;
26271;SDS011;13997;48.902;12.472;2023-10-13T14:51:49;4.72;;;1.98;;
26271;SDS011;13997;48.902;12.472;2023-10-13T14:54:15;8.10;;;2.58;;
26271;SDS011;13997;48.902;12.472;2023-10-13T14:56:41;7.10;;;1.95;;
26271;SDS011;13997;48.902;12.472;2023-10-13T14:59:07;7.93;;;1.98;;
26271;SDS011;13997;48.902;12.472;2023-10-13T15:01:39;7.55;;;2.30;;
26271;SDS011;13997;48.902;12.472;2023-10-13T15:04:05;8.65;;;2.70;;
26271;SDS011;13997;48.902;12.472;2023-10-13T15:06:31;10.05;;;2.60;;
26271;SDS011;13997;48.902;12.472;2023-10-13T15:08:57;7.47;;;2.40;;
26271;SDS011;13997;48.902;12.472;2023-10-13T15:11:24;9.35;;;2.38;;
26271;SDS011;13997;48.902;12.472;2023-10-13T15:13:54;11.23;;;1.92;;
26271;SDS011;13997;48.902;12.472;2023-10-13T15:16:21;8.55;;;2.20;;
26271;SDS011;13997;48.902;12.472;2023-10-13T15:18:49;9.32;;;2.15;;
26271;SDS011;13997;48.902;12.472;2023-10-13T15:21:19;10.73;;;2.08;;
26271;SDS011;13997;48.902;12.472;2023-10-13T15:23:46;9.88;;;2.20;;
26271;SDS011;13997;48.902;12.472;2023-10-13T15:26:12;7.55;;;1.85;;
26271;SDS011;13997;48.902;12.472;2023-10-13T15:28:39;8.57;;;1.77;;
26271;SDS011;13997;48.902;12.472;2023-10-13T15:31:17;8.88;;;1.88;;
26271;SDS011;13997;48.902;12.472;2023-10-13T15:34:03;7.70;;;2.10;;
26271;SDS011;13997;48.902;12.472;2023-10-13T15:36:35;4.30;;;2.17;;